createdAt,value
2023-04-21T00:01:16.043Z,97721.75
2023-04-21T00:03:42.590Z,97725.66
2023-04-21T00:06:12.950Z,97717.34
2023-04-21T00:08:39.378Z,97714.13
2023-04-21T00:11:05.660Z,97715.41
2023-04-21T00:13:31.978Z,97701.78
2023-04-21T00:15:58.270Z,97704.69
2023-04-21T00:18:24.871Z,97701.44
2023-04-21T00:20:51.133Z,97700.06
2023-04-21T00:23:17.538Z,97692.56
2023-04-21T00:25:43.948Z,97693.03
2023-04-21T00:28:10.244Z,97687.16
2023-04-21T00:30:36.758Z,97694.31
2023-04-21T00:33:03.587Z,97691.06
2023-04-21T00:35:30.029Z,97693.75
2023-04-21T00:37:56.536Z,97697.69
2023-04-21T00:40:23.000Z,97692.59
2023-04-21T00:42:49.374Z,97702.69
2023-04-21T00:45:15.898Z,97703.97
2023-04-21T00:47:42.375Z,97699.94
2023-04-21T00:50:08.681Z,97710.00
2023-04-21T00:52:34.945Z,97705.94
2023-04-21T00:55:01.957Z,97686.88
2023-04-21T00:57:28.391Z,97699.72
2023-04-21T00:59:54.675Z,97698.09
2023-04-21T01:02:21.232Z,97704.41
2023-04-21T01:04:47.731Z,97703.28
2023-04-21T01:07:14.132Z,97697.41
2023-04-21T01:09:40.382Z,97690.44
2023-04-21T01:12:06.700Z,97697.06
2023-04-21T01:14:33.042Z,97700.19
2023-04-21T01:16:59.367Z,97697.78
2023-04-21T01:19:25.762Z,97692.91
2023-04-21T01:21:52.103Z,97702.97
2023-04-21T01:24:18.494Z,97702.41
2023-04-21T01:26:44.931Z,97711.41
2023-04-21T01:29:11.229Z,97704.94
2023-04-21T01:31:37.529Z,97706.00
2023-04-21T01:34:03.835Z,97713.97
2023-04-21T01:36:30.149Z,97709.13
2023-04-21T01:38:56.544Z,97705.66
2023-04-21T01:41:23.126Z,97713.63
2023-04-21T01:43:49.484Z,97709.56
2023-04-21T01:46:15.886Z,97717.78
2023-04-21T01:48:42.316Z,97703.91
2023-04-21T01:51:08.833Z,97705.31
2023-04-21T01:53:35.675Z,97708.91
2023-04-21T01:56:02.456Z,97699.63
2023-04-21T01:58:28.752Z,97713.41
2023-04-21T02:00:55.127Z,97711.22
2023-04-21T02:03:21.749Z,97707.97
2023-04-21T02:05:48.340Z,97710.88
2023-04-21T02:08:14.638Z,97712.13
2023-04-21T02:10:41.210Z,97718.97
2023-04-21T02:13:07.566Z,97713.09
2023-04-21T02:15:33.984Z,97715.16
2023-04-21T02:18:00.908Z,97700.47
2023-04-21T02:20:27.221Z,97709.75
2023-04-21T02:22:53.687Z,97720.59
2023-04-21T02:25:20.122Z,97710.41
2023-04-21T02:27:46.568Z,97713.31
2023-04-21T02:30:12.929Z,97710.88
2023-04-21T02:32:39.355Z,97713.78
2023-04-21T02:35:05.762Z,97712.19
2023-04-21T02:37:32.033Z,97711.59
2023-04-21T02:39:58.403Z,97712.63
2023-04-21T02:42:24.909Z,97719.22
2023-04-21T02:44:51.244Z,97728.22
2023-04-21T02:47:17.664Z,97726.84
2023-04-21T02:49:43.968Z,97727.88
2023-04-21T02:52:10.287Z,97722.78
2023-04-21T02:54:36.600Z,97729.16
2023-04-21T02:57:03.471Z,97719.53
2023-04-21T02:59:29.956Z,97729.63
2023-04-21T03:01:56.287Z,97727.16
2023-04-21T03:04:22.741Z,97725.56
2023-04-21T03:06:49.109Z,97727.63
2023-04-21T03:09:15.475Z,97735.03
2023-04-21T03:11:41.920Z,97737.09
2023-04-21T03:20:29.285Z,97722.66
2023-04-21T03:22:55.685Z,97722.91
2023-04-21T03:25:22.467Z,97722.09
2023-04-21T03:27:48.792Z,97717.81
2023-04-21T03:30:15.182Z,97715.16
2023-04-21T03:32:41.554Z,97724.16
2023-04-21T03:35:07.869Z,97725.75
2023-04-21T03:37:34.196Z,97724.16
2023-04-21T03:40:00.684Z,97717.25
2023-04-21T03:42:27.059Z,97721.75
2023-04-21T03:44:53.507Z,97720.09
2023-04-21T03:47:19.933Z,97720.34
2023-04-21T03:49:46.252Z,97717.69
2023-04-21T03:52:12.628Z,97715.25
2023-04-21T03:54:38.962Z,97717.09
2023-04-21T03:57:05.292Z,97709.38
2023-04-21T03:59:31.845Z,97706.94
2023-04-21T04:01:58.699Z,97701.06
2023-04-21T04:04:26.151Z,97698.38
2023-04-21T04:06:52.687Z,97697.81
2023-04-21T04:09:19.249Z,97690.88
2023-04-21T04:11:45.822Z,97692.69
2023-04-21T04:14:12.068Z,97700.91
2023-04-21T04:16:38.505Z,97695.81
2023-04-21T04:19:04.783Z,97700.31
2023-04-21T04:21:31.395Z,97698.72
2023-04-21T04:23:57.748Z,97693.41
2023-04-21T04:26:24.376Z,97708.50
2023-04-21T04:28:50.923Z,97700.78
2023-04-21T04:31:17.501Z,97698.72
2023-04-21T04:33:44.198Z,97688.09
2023-04-21T04:36:10.582Z,97705.63
2023-04-21T04:38:36.883Z,97697.47
2023-04-21T04:41:03.372Z,97696.19
2023-04-21T04:43:29.800Z,97718.63
2023-04-21T04:45:56.254Z,97708.34
2023-04-21T04:48:22.779Z,97712.94
2023-04-21T04:50:49.714Z,97697.38
2023-04-21T04:53:16.020Z,97700.38
2023-04-21T04:55:42.595Z,97705.81
2023-04-21T04:58:09.094Z,97721.84
2023-04-21T05:00:35.390Z,97728.31
2023-04-21T05:03:02.384Z,97717.81
2023-04-21T05:05:29.202Z,97730.44
2023-04-21T05:07:55.571Z,97736.88
2023-04-21T05:10:21.927Z,97760.69
2023-04-21T05:12:48.220Z,97749.72
2023-04-21T05:15:14.758Z,97753.03
2023-04-21T05:17:41.326Z,97763.63
2023-04-21T05:20:07.794Z,97768.25
2023-04-21T05:22:34.090Z,97772.75
2023-04-21T05:25:00.536Z,97776.72
2023-04-21T05:27:26.962Z,97778.75
2023-04-21T05:29:53.497Z,97779.63
2023-04-21T05:32:29.208Z,97782.00
2023-04-21T05:34:59.443Z,97777.47
2023-04-21T05:37:26.014Z,97780.06
2023-04-21T05:39:52.481Z,97781.88
2023-04-21T05:42:19.154Z,97780.97
2023-04-21T05:44:45.553Z,97780.25
2023-04-21T05:47:11.883Z,97769.75
2023-04-21T05:49:38.516Z,97777.94
2023-04-21T05:52:04.899Z,97780.19
2023-04-21T05:54:31.217Z,97787.84
2023-04-21T05:56:57.623Z,97790.91
2023-04-21T05:59:24.627Z,97779.81
2023-04-21T06:01:51.164Z,97781.22
2023-04-21T06:04:17.693Z,97779.47
2023-04-21T06:06:44.231Z,97784.66
2023-04-21T06:09:10.510Z,97771.94
2023-04-21T06:11:37.026Z,97764.50
2023-04-21T06:15:37.515Z,97773.16
2023-04-21T06:17:07.421Z,97776.97
2023-04-21T06:19:35.151Z,97774.63
2023-04-21T06:22:05.249Z,97768.78
2023-04-21T06:24:36.830Z,97767.47
2023-04-21T06:27:04.752Z,97765.16
2023-04-21T06:29:31.132Z,97766.50
2023-04-21T06:31:57.500Z,97770.56
2023-04-21T06:34:23.876Z,97768.44
2023-04-21T06:36:50.247Z,97763.38
2023-04-21T06:39:16.615Z,97767.13
2023-04-21T06:41:42.986Z,97762.84
2023-04-21T06:44:09.311Z,97762.31
2023-04-21T06:46:35.612Z,97764.41
2023-04-21T06:49:02.042Z,97758.78
2023-04-21T06:51:28.563Z,97752.81
2023-04-21T06:53:54.948Z,97755.75
2023-04-21T06:56:21.481Z,97752.50
2023-04-21T06:58:47.916Z,97751.94
2023-04-21T07:01:14.297Z,97754.28
2023-04-21T07:03:40.737Z,97755.56
2023-04-21T07:06:07.801Z,97748.50
2023-04-21T07:08:34.417Z,97756.22
2023-04-21T07:11:00.728Z,97768.28
2023-04-21T07:13:34.488Z,97779.50
2023-04-21T07:16:00.843Z,97793.41
2023-04-21T07:18:27.129Z,97795.47
2023-04-21T07:20:53.526Z,97806.66
2023-04-21T07:23:20.138Z,97817.91
2023-04-21T07:25:48.442Z,97817.81
2023-04-21T07:28:15.127Z,97825.22
2023-04-21T07:30:41.656Z,97837.75
2023-04-21T07:33:08.731Z,97855.16
2023-04-21T07:35:35.154Z,97864.97
2023-04-21T07:38:01.537Z,97874.81
2023-04-21T07:40:27.848Z,97882.22
2023-04-21T07:42:54.241Z,97893.66
2023-04-21T07:45:20.572Z,97906.13
2023-04-21T07:47:47.336Z,97909.78
2023-04-21T07:50:13.706Z,97916.59
2023-04-21T07:52:40.098Z,97921.28
2023-04-21T07:55:06.653Z,97931.34
2023-04-21T07:57:33.351Z,97937.34
2023-04-21T07:59:59.763Z,97948.47
2023-04-21T08:02:26.133Z,97961.47
2023-04-21T08:04:52.718Z,97970.34
2023-04-21T08:07:19.202Z,97989.47
2023-04-21T08:12:29.719Z,98007.00
2023-04-21T08:14:58.965Z,98003.84
2023-04-21T08:17:25.398Z,98004.75
2023-04-21T08:19:51.853Z,98002.09
2023-04-21T08:22:18.378Z,97999.59
2023-04-21T08:24:45.096Z,98014.91
2023-04-21T08:27:11.458Z,98018.94
2023-04-21T08:29:37.993Z,98014.91
2023-04-21T08:32:04.528Z,98020.47
2023-04-21T08:34:31.193Z,98004.41
2023-04-21T08:36:57.884Z,98001.47
2023-04-21T08:39:24.387Z,97973.88
2023-04-21T08:41:50.678Z,97988.00
2023-04-21T08:44:17.458Z,97983.13
2023-04-21T08:46:44.067Z,97981.94
2023-04-21T08:49:10.347Z,97977.50
2023-04-21T08:51:36.662Z,97960.44
2023-04-21T08:54:03.116Z,97942.09
2023-04-21T08:56:29.467Z,97884.72
2023-04-21T08:58:55.887Z,97832.53
2023-04-21T09:01:23.318Z,97734.47
2023-04-21T09:03:49.815Z,97666.06
2023-04-21T09:06:16.735Z,97662.38
2023-04-21T09:08:43.427Z,97661.19
2023-04-21T09:11:09.751Z,97649.38
2023-04-21T09:13:36.094Z,97646.13
2023-04-21T09:16:02.674Z,97660.59
2023-04-21T09:18:29.087Z,97657.00
2023-04-21T09:20:55.406Z,97654.41
2023-04-21T09:23:22.275Z,97660.16
2023-04-21T09:25:48.788Z,97656.47
2023-04-21T09:28:15.527Z,97662.13
2023-04-21T09:30:41.829Z,97662.72
2023-04-21T09:33:20.124Z,97647.16
2023-04-21T09:35:51.309Z,97648.81
2023-04-21T09:38:17.652Z,97633.53
2023-04-21T09:40:44.028Z,97652.19
2023-04-21T09:43:10.353Z,97638.47
2023-04-21T09:45:40.620Z,97636.38
2023-04-21T09:48:07.368Z,97641.25
2023-04-21T09:51:11.461Z,97637.25
2023-04-21T09:53:20.033Z,97627.34
2023-04-21T09:55:46.328Z,97635.22
2023-04-21T09:58:12.663Z,97628.22
2023-04-21T10:00:38.987Z,97622.59
2023-04-21T10:03:05.451Z,97632.91
2023-04-21T10:05:32.148Z,97627.00
2023-04-21T10:07:58.559Z,97616.78
2023-04-21T10:10:24.998Z,97615.19
2023-04-21T10:12:51.481Z,97617.38
2023-04-21T10:15:17.760Z,97615.28
2023-04-21T10:17:44.151Z,97612.06
2023-04-21T10:20:10.515Z,97606.97
2023-04-21T10:22:36.809Z,97603.25
2023-04-21T10:25:03.207Z,97592.47
2023-04-21T10:27:29.556Z,97592.47
2023-04-21T10:29:57.153Z,97579.28
2023-04-21T10:32:26.591Z,97584.97
2023-04-21T10:34:52.998Z,97593.34
2023-04-21T10:37:19.316Z,97580.97
2023-04-21T10:39:45.747Z,97585.06
2023-04-21T10:42:12.385Z,97582.66
2023-04-21T10:44:38.790Z,97566.78
2023-04-21T10:47:05.234Z,97577.84
2023-04-21T10:49:31.574Z,97578.94
2023-04-21T10:51:58.080Z,97557.97
2023-04-21T10:54:24.448Z,97558.75
2023-04-21T10:56:50.762Z,97562.56
2023-04-21T10:59:17.102Z,97555.56
2023-04-21T11:01:43.404Z,97552.63
2023-04-21T11:04:09.917Z,97557.22
2023-04-21T11:06:36.328Z,97562.47
2023-04-21T11:09:02.689Z,97561.66
2023-04-21T11:11:29.019Z,97555.75
2023-04-21T11:13:55.381Z,97547.66
2023-04-21T11:16:21.887Z,97541.47
2023-04-21T11:18:48.721Z,97542.56
2023-04-21T11:21:15.278Z,97531.81
2023-04-21T11:23:42.112Z,97515.72
2023-04-21T11:26:08.706Z,97515.38
2023-04-21T11:28:35.646Z,97538.13
2023-04-21T11:31:02.118Z,97518.84
2023-04-21T11:33:28.532Z,97515.38
2023-04-21T11:35:54.847Z,97510.75
2023-04-21T11:38:21.270Z,97513.16
2023-04-21T11:40:47.600Z,97515.56
2023-04-21T11:43:13.876Z,97513.16
2023-04-21T11:45:40.181Z,97511.34
2023-04-21T11:48:06.621Z,97505.38
2023-04-21T11:50:42.397Z,97503.78
2023-04-21T11:53:11.198Z,97506.47
2023-04-21T11:55:37.900Z,97493.31
2023-04-21T11:58:04.468Z,97502.47
2023-04-21T12:00:30.755Z,97501.69
2023-04-21T12:02:57.604Z,97493.38
2023-04-21T12:05:24.142Z,97507.34
2023-04-21T12:07:50.660Z,97510.53
2023-04-21T12:10:17.200Z,97492.50
2023-04-21T12:12:44.020Z,97493.59
2023-04-21T12:15:10.682Z,97498.19
2023-04-21T12:17:37.221Z,97489.81
2023-04-21T12:20:03.583Z,97489.00
2023-04-21T12:22:30.028Z,97486.09
2023-04-21T12:24:56.364Z,97492.88
2023-04-21T12:27:22.706Z,97487.41
2023-04-21T12:29:49.064Z,97486.81
2023-04-21T12:32:15.560Z,97493.03
2023-04-21T12:34:43.139Z,97487.63
2023-04-21T12:37:09.464Z,97492.50
2023-04-21T12:39:35.939Z,97490.69
2023-04-21T12:42:02.230Z,97489.38
2023-04-21T12:44:28.573Z,97501.25
2023-04-21T12:46:54.918Z,97504.72
2023-04-21T12:49:21.351Z,97499.91
2023-04-21T12:51:47.814Z,97502.03
2023-04-21T12:54:14.254Z,97497.44
2023-04-21T12:56:40.668Z,97489.38
2023-04-21T12:59:07.311Z,97497.44
2023-04-21T13:01:36.825Z,97505.81
2023-04-21T13:04:03.413Z,97495.13
2023-04-21T13:06:30.061Z,97494.31
2023-04-21T13:08:56.392Z,97495.13
2023-04-21T13:11:24.327Z,97499.19
2023-04-21T13:13:50.772Z,97487.34
2023-04-21T13:16:17.116Z,97493.28
2023-04-21T13:18:43.615Z,97482.50
2023-04-21T13:21:10.229Z,97480.63
2023-04-21T13:23:36.604Z,97482.50
2023-04-21T13:26:02.961Z,97482.50
2023-04-21T13:28:29.290Z,97484.13
2023-04-21T13:30:55.694Z,97477.94
2023-04-21T13:33:22.145Z,97473.13
2023-04-21T13:35:48.516Z,97479.28
2023-04-21T13:38:15.008Z,97478.28
2023-04-21T13:40:41.364Z,97475.06
2023-04-21T13:43:07.943Z,97474.25
2023-04-21T13:45:37.494Z,97474.47
2023-04-21T13:48:03.964Z,97465.34
2023-04-21T13:50:30.326Z,97465.34
2023-04-21T13:52:56.762Z,97465.34
2023-04-21T13:55:23.033Z,97459.97
2023-04-21T13:57:49.344Z,97453.47
2023-04-21T14:00:15.926Z,97448.38
2023-04-21T14:02:42.530Z,97440.09
2023-04-21T14:05:09.256Z,97438.47
2023-04-21T14:07:35.923Z,97443.38
2023-04-21T14:10:02.358Z,97448.75
2023-04-21T14:12:28.659Z,97443.38
2023-04-21T14:14:55.053Z,97427.22
2023-04-21T14:17:21.636Z,97434.78
2023-04-21T14:19:47.915Z,97430.47
2023-04-21T14:22:14.194Z,97421.91
2023-04-21T14:24:40.693Z,97414.09
2023-04-21T14:27:06.973Z,97422.97
2023-04-21T14:29:33.870Z,97408.25
2023-04-21T14:32:00.467Z,97409.00
2023-04-21T14:34:26.984Z,97409.81
2023-04-21T14:36:53.382Z,97403.63
2023-04-21T14:39:19.736Z,97388.06
2023-04-21T14:41:46.143Z,97388.66
2023-04-21T14:44:12.592Z,97390.03
2023-04-21T14:46:38.990Z,97384.94
2023-04-21T14:49:05.348Z,97377.97
2023-04-21T14:51:31.641Z,97381.75
2023-04-21T14:53:58.234Z,97374.78
2023-04-21T14:56:24.505Z,97373.97
2023-04-21T14:58:50.969Z,97376.16
2023-04-21T15:01:17.514Z,97373.47
2023-04-21T15:03:44.055Z,97376.44
2023-04-21T15:06:10.455Z,97374.03
2023-04-21T15:08:36.702Z,97364.34
2023-04-21T15:11:03.031Z,97364.66
2023-04-21T15:13:29.439Z,97359.28
2023-04-21T15:15:55.810Z,97355.00
2023-04-21T15:18:22.115Z,97365.25
2023-04-21T15:20:48.390Z,97355.28
2023-04-21T15:23:15.023Z,97358.28
2023-04-21T15:25:41.377Z,97356.66
2023-04-21T15:28:07.694Z,97345.38
2023-04-21T15:30:34.140Z,97349.19
2023-04-21T15:33:00.550Z,97355.13
2023-04-21T15:35:26.863Z,97338.50
2023-04-21T15:37:53.146Z,97343.34
2023-04-21T15:40:19.585Z,97338.28
2023-04-21T15:42:45.946Z,97333.19
2023-04-21T15:45:12.366Z,97336.16
2023-04-21T15:47:38.768Z,97332.66
2023-04-21T15:50:05.184Z,97331.06
2023-04-21T15:52:31.567Z,97318.72
2023-04-21T15:54:57.893Z,97331.63
2023-04-21T15:57:24.231Z,97330.81
2023-04-21T15:59:50.615Z,97331.94
2023-04-21T16:02:17.169Z,97331.13
2023-04-21T16:04:44.221Z,97321.19
2023-04-21T16:07:11.161Z,97325.75
2023-04-21T16:09:37.519Z,97324.16
2023-04-21T16:12:03.899Z,97307.50
2023-04-21T16:14:39.290Z,97312.09
2023-04-21T16:17:13.660Z,97311.31
2023-04-21T16:19:43.691Z,97311.56
2023-04-21T16:22:10.000Z,97315.31
2023-04-21T16:24:37.287Z,97311.81
2023-04-21T16:27:03.835Z,97309.44
2023-04-21T16:29:30.242Z,97308.66
2023-04-21T16:31:56.769Z,97307.84
2023-04-21T16:34:23.114Z,97303.53
2023-04-21T16:36:49.679Z,97303.84
2023-04-21T16:39:16.092Z,97298.47
2023-04-21T16:41:42.433Z,97293.38
2023-04-21T16:44:08.703Z,97289.09
2023-04-21T16:46:35.454Z,97287.50
2023-04-21T16:49:04.091Z,97293.66
2023-04-21T16:51:30.545Z,97295.03
2023-04-21T16:53:56.814Z,97291.56
2023-04-21T16:56:23.220Z,97285.69
2023-04-21T16:58:49.622Z,97287.56
2023-04-21T17:01:16.331Z,97278.19
2023-04-21T17:03:42.930Z,97281.97
2023-04-21T17:06:09.319Z,97281.44
2023-04-21T17:08:35.604Z,97282.03
2023-04-21T17:11:01.931Z,97276.66
2023-04-21T17:13:28.630Z,97279.63
2023-04-21T17:15:54.921Z,97280.69
2023-04-21T17:18:21.380Z,97275.63
2023-04-21T17:20:47.730Z,97269.75
2023-04-21T17:23:14.295Z,97273.50
2023-04-21T17:25:40.733Z,97269.25
2023-04-21T17:28:07.087Z,97264.16
2023-04-21T17:30:33.586Z,97266.34
2023-04-21T17:33:14.769Z,97261.25
2023-04-21T17:35:55.820Z,97258.03
2023-04-21T17:38:28.431Z,97266.41
2023-04-21T17:40:54.752Z,97263.97
2023-04-21T17:43:21.159Z,97256.50
2023-04-21T17:45:47.488Z,97260.28
2023-04-21T17:48:13.954Z,97255.22
2023-04-21T17:50:40.596Z,97261.13
2023-04-21T17:53:07.151Z,97258.72
2023-04-21T17:55:36.551Z,97262.53
2023-04-21T17:58:02.985Z,97268.44
2023-04-21T18:00:29.281Z,97262.59
2023-04-21T18:02:55.864Z,97260.44
2023-04-21T18:05:22.242Z,97250.81
2023-04-21T18:07:48.683Z,97255.66
2023-04-21T18:10:15.026Z,97263.19
2023-04-21T18:12:41.528Z,97257.31
2023-04-21T18:15:08.130Z,97258.41
2023-04-21T18:17:35.715Z,97256.00
2023-04-21T18:20:02.479Z,97259.75
2023-04-21T18:22:28.946Z,97259.28
2023-04-21T18:24:55.261Z,97259.50
2023-04-21T18:27:21.519Z,97260.59
2023-04-21T18:29:47.839Z,97260.09
2023-04-21T18:32:14.627Z,97257.69
2023-04-21T18:34:41.249Z,97262.25
2023-04-21T18:37:07.742Z,97259.84
2023-04-21T18:39:34.225Z,97273.56
2023-04-21T18:42:00.580Z,97260.44
2023-04-21T18:44:27.090Z,97273.03
2023-04-21T18:46:53.551Z,97271.75
2023-04-21T18:49:20.043Z,97274.44
2023-04-21T18:51:46.398Z,97280.09
2023-04-21T18:54:13.610Z,97278.47
2023-04-21T18:56:39.992Z,97276.88
2023-04-21T18:59:06.311Z,97284.94
2023-04-21T19:01:32.805Z,97276.06
2023-04-21T19:03:59.613Z,97277.44
2023-04-21T19:06:40.685Z,97286.56
2023-04-21T19:09:15.193Z,97285.75
2023-04-21T19:11:50.831Z,97284.19
2023-04-21T19:17:02.125Z,97299.25
2023-04-21T19:19:28.456Z,97293.06
2023-04-21T19:21:55.139Z,97300.63
2023-04-21T19:24:21.513Z,97293.63
2023-04-21T19:26:48.367Z,97293.63
2023-04-21T19:29:14.821Z,97297.41
2023-04-21T19:31:41.203Z,97289.66
2023-04-21T19:34:07.502Z,97290.72
2023-04-21T19:36:33.902Z,97291.53
2023-04-21T19:39:01.582Z,97296.38
2023-04-21T19:41:28.197Z,97291.81
2023-04-21T19:43:54.494Z,97299.34
2023-04-21T19:46:20.886Z,97300.41
2023-04-21T19:48:47.272Z,97300.69
2023-04-21T19:51:13.644Z,97299.91
2023-04-21T19:53:39.962Z,97293.75
2023-04-21T19:56:06.323Z,97306.63
2023-04-21T20:01:04.962Z,97301.84
2023-04-21T20:03:31.372Z,97305.59
2023-04-21T20:05:57.819Z,97298.09
2023-04-21T20:08:24.125Z,97300.78
2023-04-21T20:10:50.460Z,97302.94
2023-04-21T20:13:21.186Z,97296.00
2023-04-21T20:15:54.025Z,97295.47
2023-04-21T20:18:20.370Z,97301.94
2023-04-21T20:20:46.778Z,97297.09
2023-04-21T20:23:16.702Z,97299.00
2023-04-21T20:25:43.533Z,97299.25
2023-04-21T20:28:09.999Z,97301.44
2023-04-21T20:30:36.494Z,97299.84
2023-04-21T20:33:03.177Z,97297.44
2023-04-21T20:35:30.950Z,97295.84
2023-04-21T20:37:58.248Z,97304.16
2023-04-21T20:40:24.628Z,97305.25
2023-04-21T20:42:50.965Z,97305.53
2023-04-21T20:45:17.539Z,97310.06
2023-04-21T20:47:43.845Z,97305.81
2023-04-21T20:50:10.300Z,97305.56
2023-04-21T20:52:36.661Z,97311.19
2023-04-21T20:55:06.863Z,97311.19
2023-04-21T20:57:33.215Z,97318.69
2023-04-21T20:59:59.488Z,97311.72
2023-04-21T21:02:26.145Z,97311.22
2023-04-21T21:04:52.527Z,97311.47
2023-04-21T21:07:18.833Z,97309.88
2023-04-21T21:09:45.193Z,97300.50
2023-04-21T21:12:11.680Z,97315.00
2023-04-21T21:14:37.945Z,97301.06
2023-04-21T21:17:04.763Z,97309.41
2023-04-21T21:19:31.296Z,97311.03
2023-04-21T21:21:57.815Z,97309.47
2023-04-21T21:24:24.174Z,97306.56
2023-04-21T21:26:50.739Z,97307.66
2023-04-21T21:29:17.038Z,97303.44
2023-04-21T21:31:43.504Z,97298.34
2023-04-21T21:34:09.863Z,97295.44
2023-04-21T21:36:36.123Z,97298.41
2023-04-21T21:39:02.755Z,97298.44
2023-04-21T21:41:29.087Z,97299.00
2023-04-21T21:43:55.392Z,97301.44
2023-04-21T21:46:21.708Z,97295.81
2023-04-21T21:48:48.262Z,97294.72
2023-04-21T21:51:14.913Z,97291.78
2023-04-21T21:53:41.247Z,97293.13
2023-04-21T21:56:07.593Z,97293.69
2023-04-21T21:58:33.890Z,97290.75
2023-04-21T22:01:00.401Z,97289.72
2023-04-21T22:03:27.014Z,97286.50
2023-04-21T22:05:53.487Z,97284.38
2023-04-21T22:08:19.760Z,97289.47
2023-04-21T22:10:46.280Z,97288.16
2023-04-21T22:13:12.572Z,97284.94
2023-04-21T22:15:39.111Z,97281.19
2023-04-21T22:18:05.600Z,97279.88
2023-04-21T22:20:31.967Z,97279.34
2023-04-21T22:22:58.530Z,97278.81
2023-04-21T22:25:24.882Z,97284.72
2023-04-21T22:27:51.211Z,97279.09
2023-04-21T22:30:17.504Z,97283.38
2023-04-21T22:32:43.888Z,97277.50
2023-04-21T22:35:10.219Z,97273.78
2023-04-21T22:37:36.628Z,97273.25
2023-04-21T22:40:03.006Z,97269.50
2023-04-21T22:42:29.417Z,97265.50
2023-04-21T22:44:55.953Z,97262.53
2023-04-21T22:47:22.374Z,97261.50
2023-04-21T22:49:48.713Z,97260.97
2023-04-21T22:52:15.036Z,97250.00
2023-04-21T22:54:41.377Z,97233.16
2023-04-21T22:57:07.654Z,97240.34
2023-04-21T22:59:34.029Z,97248.09
2023-04-21T23:02:00.440Z,97240.63
2023-04-21T23:04:26.884Z,97241.19
2023-04-21T23:06:53.236Z,97224.59
2023-04-21T23:09:19.702Z,97222.47
2023-04-21T23:11:45.958Z,97236.13
2023-04-21T23:14:12.479Z,97233.97
2023-04-21T23:16:38.785Z,97236.91
2023-04-21T23:19:05.365Z,97231.28
2023-04-21T23:21:31.873Z,97242.25
2023-04-21T23:23:58.311Z,97240.66
2023-04-21T23:26:24.637Z,97240.94
2023-04-21T23:28:51.168Z,97241.47
2023-04-21T23:31:17.523Z,97244.41
2023-04-21T23:33:43.973Z,97242.00
2023-04-21T23:36:10.297Z,97244.13
2023-04-21T23:38:36.599Z,97246.00
2023-04-21T23:41:03.047Z,97247.34
2023-04-21T23:43:29.631Z,97247.63
2023-04-21T23:45:56.126Z,97248.69
2023-04-21T23:48:22.400Z,97241.22
2023-04-21T23:50:48.742Z,97246.00
2023-04-21T23:53:15.436Z,97244.69
2023-04-21T23:55:41.788Z,97243.34
2023-04-21T23:58:08.059Z,97240.13
